首页
METAR-TAF:

METAR-TAF

机场 :

成吉思汗國際機場

乌兰巴托, 蒙古国

纬度: 47-55N, 经度: 106-52E, 海拔: 1306米

当前天气观测

该预报发布于27分钟前的07:30 UTC
风速16节,风向西,在西转西南西北之间变化
温度 12°C
湿度 19%
气压 1007 hPa
能见度10公里或以上
少量云层高于3300英尺

METAR: ZMUB 220730Z 27008MPS 240V320 9999 FEW033 12/M11 Q1007 NOSIG RMK QFE648.6 18 MOP

时间: 16:57 (07:57 UTC)

预报

该预报发布于3小时和7分钟前的04:50 UTC
预报有效从22日的 06点(UTC)到 23日的 12点(UTC)
风速16节,风向西转西北,有时为25节阵风
能见度10公里或以上
少量云层高于3000英尺, 积雨云.
散云层高于3300英尺
成为
从 22日的 10点(UTC)到 22日的 12点(UTC)
风速10节,风向西转西北
成为
从 22日的 13点(UTC)到 22日的 15点(UTC)
风速4节,风向多变
成为
从 22日的 23点(UTC)到 23日的 01点(UTC)
风速12节,风向西
成为
从 23日的 02点(UTC)到 23日的 04点(UTC)
风速17节,风向西转西北
成为
从 23日的 10点(UTC)到 23日的 12点(UTC)
风速4节,风向多变

TAF: ZMUB 220450Z 2206/2312 29008G13MPS 9999 DRDS FEW030CB SCT033 TX12/2207Z TN02/2222Z BECMG 2210/2212 29005MPS NSW BECMG 2213/2215 VRB02MPS BECMG 2223/2301 28006MPS BECMG 2302/2304 29009MPS BECMG 2310/2312 VRB02MPS

超过4000个机场的气象观测和天气预报(METAR&TAF报告)。

可查询的气象台以黄色和红色小点在地图上表示。

将鼠标移到小点上方,可查看气象台名称。

然后点击查看天气观测和预报。

如需切换地图:点击带黑十字的绿色按钮放大地图;点击带横线的绿色按钮缩小地图;或者点击绿色箭头查看邻近地区的地图。


METAR-TAF: